Terminal Aerodrome Forecast
Issued by NWS Sioux Falls, SD

Home | Current Version | Previous Version | Graphics & Text | Print | Product List | Glossary On
Versions: 1 2 3 4 5 6 7 8 9 10 11 12 13 14 15
000
FTUS43 KFSD 221313 AAA
TAFFSD
TAF AMD
KFSD 221313Z 2213/2312 32007KT P6SM OVC007
      TEMPO 2213/2214 3SM -DZ BR
     FM221900 31010KT P6SM OVC010
     FM230000 31006KT P6SM BKN010
     FM230800 29004KT P6SM BKN008=

USA.gov is the U.S. government's official web portal to all federal, state and local government web resources and services.